Coffeyville, Kansas
Current Conditions -  °F | °C
As of 9:52 PM on Tuesday 27 Jan 2015 (Local Time) from KCFV Reporting Station
Clear Clear  
Wind Chill:   Ceiling: Unl
Heat Index:   Visibility: 10mi
Dew Point:   Wind: 5mph
Humidity: 73%   Direction: 90°E
Pressure: 30.04"   Gusts: NA
Location:  37.03°N, 95.62°W
Report Text: KCFV 280352Z AUTO 09004KT 10SM CLR 04/00 A3004 RMK AO2 SLP175 T00440000
Loading
Personal Weather Stations






























Interactive Weather Map New forecast layout! Learn more

10-Day Weather Forecast

Advertisements
Track Severe Weather on mobile